Sunday, April 20, 2014, 11:10 PM EDT

KPTB, Petersburg, Dinwiddie County Airport

Location: Petersburg, VA, United States Lat: 37.183
Local Time: 11:10 PM EDT ( 3:10 GMT) Lon: -77.517
Time Zone: US/Eastern Elev: 193 ft

Show me the last for .
Show Decoded

2014-04-20 22:55 METAR KPTB 210255Z 03010G16KT 10SM CLR 11/01 A3028 RMK AO2 PWINO =
2014-04-20 22:35 METAR KPTB 210235Z 03007KT 10SM CLR 12/03 A3028 RMK AO2 PWINO =
2014-04-20 22:15 METAR KPTB 210215Z 03009KT 10SM CLR 12/03 A3028 RMK AO2 PWINO =
2014-04-20 21:55 METAR KPTB 210155Z 03013G17KT 10SM 13/04 A3028 RMK AO2 PWINO =
2014-04-20 21:35 METAR KPTB 210135Z 03008KT 10SM CLR 12/05 A3028 RMK AO2 PWINO =
2014-04-20 21:15 METAR KPTB 210115Z 04007KT 10SM CLR 12/06 A3027 RMK AO2 PWINO =
2014-04-20 20:55 METAR KPTB 210055Z 05004KT 10SM CLR 13/04 A3027 RMK AO2 PWINO =
2014-04-20 20:35 METAR KPTB 210035Z 06005KT 10SM CLR 13/03 A3027 RMK AO2 PWINO =
2014-04-20 20:15 METAR KPTB 210015Z 06005KT 10SM CLR 14/02 A3027 RMK AO2 PWINO =
2014-04-20 19:55 METAR KPTB 202355Z 07006KT 10SM CLR 15/01 A3027 RMK AO2 PWINO =
2014-04-20 19:35 METAR KPTB 202335Z 07011G16KT 10SM CLR 16/01 A3028 RMK AO2 PWINO =
2014-04-20 19:15 METAR KPTB 202315Z 07009G15KT 10SM CLR 17/01 A3028 RMK AO2 LTG DSNT SE PWINO =
2014-04-20 18:55 METAR KPTB 202255Z 07010G17KT 10SM CLR 18/02 A3028 RMK AO2 PWINO =
2014-04-20 18:35 METAR KPTB 202235Z 06013G17KT 10SM CLR 18/02 A3028 RMK AO2 PWINO =
2014-04-20 18:15 METAR KPTB 202215Z 07014G17KT 10SM CLR 19/02 A3028 RMK AO2 PWINO =
2014-04-20 17:55 METAR KPTB 202155Z 07012G18KT 10SM CLR 19/01 A3028 RMK AO2 PWINO =
2014-04-20 17:35 METAR KPTB 202135Z 08010G21KT 10SM CLR 19/01 A3028 RMK AO2 PWINO =
2014-04-20 17:15 METAR KPTB 202115Z 06013G18KT 10SM CLR 20/01 A3028 RMK AO2 PWINO =
2014-04-20 16:55 METAR KPTB 202055Z 07011G17KT 10SM CLR 21/02 A3028 RMK AO2 PWINO =
2014-04-20 16:35 METAR KPTB 202035Z 06013G21KT 10SM CLR 21/02 A3027 RMK AO2 PWINO =
2014-04-20 16:15 METAR KPTB 202015Z 07013G19KT 10SM CLR 21/02 A3027 RMK AO2 PWINO =
2014-04-20 15:55 METAR KPTB 201955Z 08014G18KT 10SM CLR 21/02 A3027 RMK AO2 LTG DSNT SE AND S
                 PWINO =
2014-04-20 15:35 METAR KPTB 201935Z 05014G21KT 10SM CLR 22/03 A3028 RMK AO2 LTG DSNT S PWINO =
2014-04-20 15:15 METAR KPTB 201915Z 05011G18KT 10SM CLR 22/02 A3028 RMK AO2 PWINO =
2014-04-20 14:55 METAR KPTB 201855Z 04014G17KT 030V100 10SM CLR 22/02 A3029 RMK AO2 PWINO =
2014-04-20 14:35 METAR KPTB 201835Z 05014G18KT 10SM CLR 22/02 A3030 RMK AO2 PWINO =
2014-04-20 14:15 METAR KPTB 201815Z 05014G20KT 10SM CLR 22/02 A3031 RMK AO2 PWINO =
2014-04-20 13:55 METAR KPTB 201755Z 04015G21KT 10SM SCT050 22/02 A3030 RMK AO2 PWINO =
2014-04-20 13:35 METAR KPTB 201735Z 04010G21KT 10SM SCT050 21/02 A3031 RMK AO2 PWINO =
2014-04-20 13:15 METAR KPTB 201715Z 06014G18KT 10SM SCT050 21/02 A3031 RMK AO2 PWINO =
2014-04-20 12:55 METAR KPTB 201655Z 06017G23KT 10SM SCT048 21/02 A3032 RMK AO2 PWINO =
2014-04-20 12:35 METAR KPTB 201635Z 05016G23KT 10SM SCT048 21/03 A3032 RMK AO2 PWINO =
2014-04-20 12:15 METAR KPTB 201615Z 06015G21KT 10SM SCT048 21/02 A3032 RMK AO2 PWINO =
2014-04-20 11:55 METAR KPTB 201555Z 06016G24KT 10SM SCT048 20/01 A3033 RMK AO2 LTG DSNT S PWINO =
2014-04-20 11:35 METAR KPTB 201535Z 04018G25KT 10SM CLR 20/02 A3033 RMK AO2 PWINO =
2014-04-20 11:15 METAR KPTB 201515Z 04017G24KT 10SM CLR 19/02 A3033 RMK AO2 PWINO =
2014-04-20 10:55 METAR KPTB 201455Z 03016G23KT 10SM CLR 19/03 A3033 RMK AO2 LTG DSNT S PWINO =
2014-04-20 10:35 METAR KPTB 201435Z 04015G22KT 10SM CLR 18/02 A3033 RMK AO2 PWINO =
2014-04-20 10:15 METAR KPTB 201415Z 03020G24KT 10SM CLR 17/02 A3033 RMK AO2 PWINO =
2014-04-20 09:55 METAR KPTB 201355Z 04019G26KT 10SM CLR 17/02 A3032 RMK AO2 PWINO =
2014-04-20 09:35 METAR KPTB 201335Z 05014G20KT 10SM CLR 17/02 A3032 RMK AO2 PWINO =
2014-04-20 09:15 METAR KPTB 201315Z 05011G15KT 10SM CLR 16/02 A3031 RMK AO2 LTG DSNT S PWINO =
2014-04-20 08:55 METAR KPTB 201255Z 04013G21KT 10SM CLR 16/02 A3031 RMK AO2 PWINO =
2014-04-20 08:35 METAR KPTB 201235Z 04012G19KT 10SM CLR 15/02 A3031 RMK AO2 PWINO =
2014-04-20 08:15 METAR KPTB 201215Z 03016G21KT 10SM CLR 14/02 A3031 RMK AO2 LTG DSNT S PWINO =
2014-04-20 07:55 METAR KPTB 201155Z 04010G16KT 10SM CLR 14/02 A3030 RMK AO2 PWINO =
2014-04-20 07:35 METAR KPTB 201135Z 02011KT 10SM CLR 13/02 A3028 RMK AO2 PWINO =
2014-04-20 07:15 METAR KPTB 201115Z 03009KT 10SM CLR 12/02 A3027 RMK AO2 PWINO =
2014-04-20 06:55 METAR KPTB 201055Z 02006KT 10SM CLR 11/02 A3027 RMK AO2 PWINO =
2014-04-20 06:35 METAR KPTB 201035Z 02007KT 10SM CLR 11/02 A3027 RMK AO2 PWINO =
2014-04-20 06:15 METAR KPTB 201015Z 02007KT 10SM CLR 11/02 A3026 RMK AO2 PWINO =
2014-04-20 05:55 METAR KPTB 200955Z 02009KT 10SM CLR 12/02 A3026 RMK AO2 PWINO =
2014-04-20 05:35 METAR KPTB 200935Z 02008KT 10SM CLR 12/01 A3026 RMK AO2 PWINO =
2014-04-20 05:15 METAR KPTB 200915Z 02007KT 10SM CLR 12/01 A3026 RMK AO2 PWINO =
2014-04-20 04:55 METAR KPTB 200855Z 01007KT 10SM CLR 12/01 A3026 RMK AO2 LTG DSNT S PWINO =
2014-04-20 04:35 METAR KPTB 200835Z 02005KT 10SM CLR 12/02 A3026 RMK AO2 PWINO =
2014-04-20 04:15 METAR KPTB 200815Z 01005KT 10SM CLR 12/02 A3026 RMK AO2 PWINO =
2014-04-20 03:55 METAR KPTB 200755Z 01007KT 10SM CLR 12/02 A3026 RMK AO2 PWINO =
2014-04-20 03:35 METAR KPTB 200735Z 01005KT 10SM CLR 12/02 A3025 RMK AO2 PWINO =
2014-04-20 03:15 METAR KPTB 200715Z 01005KT 10SM CLR 12/02 A3025 RMK AO2 PWINO =
2014-04-20 02:55 METAR KPTB 200655Z 01006KT 10SM CLR 12/02 A3025 RMK AO2 LTG DSNT S PWINO =
2014-04-20 02:30 METAR KPTB 200630Z 02004KT 10SM CLR 12/02 A3026 RMK AO2 PWINO =
2014-04-20 02:15 METAR KPTB 200615Z 02004KT 10SM CLR 12/02 A3026 RMK AO2 PWINO =
2014-04-20 02:00 METAR KPTB 200600Z 02005KT 10SM CLR 13/02 A3026 RMK AO2 PWINO =
2014-04-20 01:30 METAR KPTB 200530Z 02006KT 10SM CLR 12/02 A3027 RMK AO2 PWINO =
2014-04-20 01:15 METAR KPTB 200515Z 02005KT 10SM CLR 12/03 A3027 RMK AO2 PWINO =
2014-04-20 00:55 METAR KPTB 200455Z 02005KT 10SM CLR 13/04 A3027 RMK AO2 PWINO =
2014-04-20 00:35 METAR KPTB 200435Z 02006KT 10SM CLR 13/04 A3026 RMK AO2 PWINO =
2014-04-20 00:15 METAR KPTB 200415Z 03005KT 10SM CLR 12/04 A3027 RMK AO2 PWINO =
2014-04-19 23:55 METAR KPTB 200355Z 04005KT 10SM CLR 12/05 A3027 RMK AO2 PWINO =
2014-04-19 23:35 METAR KPTB 200335Z 00000KT 10SM CLR 12/04 A3027 RMK AO2 PWINO =
2014-04-19 23:15 METAR KPTB 200315Z 00000KT 10SM CLR 13/04 A3028 RMK AO2 PWINO =

Support USWX by starting your Amazon purchase here.